sensor_id;sensor_type;location;lat;lon;timestamp;temperature;humidity
19567;DHT22;9930;49.240;8.548;2023-08-17T00:00:03;24.30;70.30
19567;DHT22;9930;49.240;8.548;2023-08-17T00:02:36;24.30;70.40
19567;DHT22;9930;49.240;8.548;2023-08-17T00:05:33;24.30;70.30
19567;DHT22;9930;49.240;8.548;2023-08-17T00:08:01;24.30;70.20
19567;DHT22;9930;49.240;8.548;2023-08-17T00:10:36;24.30;70.40
19567;DHT22;9930;49.240;8.548;2023-08-17T00:13:04;24.30;70.30
19567;DHT22;9930;49.240;8.548;2023-08-17T00:15:30;24.30;70.40
19567;DHT22;9930;49.240;8.548;2023-08-17T00:18:04;24.30;70.40
19567;DHT22;9930;49.240;8.548;2023-08-17T00:20:39;24.20;70.50
19567;DHT22;9930;49.240;8.548;2023-08-17T00:23:20;24.30;70.40
19567;DHT22;9930;49.240;8.548;2023-08-17T00:25:56;24.20;70.80
19567;DHT22;9930;49.240;8.548;2023-08-17T00:28:22;24.20;70.50
19567;DHT22;9930;49.240;8.548;2023-08-17T01:33:10;23.60;72.30
19567;DHT22;9930;49.240;8.548;2023-08-17T01:35:58;23.60;72.40
19567;DHT22;9930;49.240;8.548;2023-08-17T01:38:34;23.50;72.70
19567;DHT22;9930;49.240;8.548;2023-08-17T01:41:04;23.50;72.50
19567;DHT22;9930;49.240;8.548;2023-08-17T01:43:40;23.50;72.70
19567;DHT22;9930;49.240;8.548;2023-08-17T01:46:09;23.50;72.70
19567;DHT22;9930;49.240;8.548;2023-08-17T20:51:22;27.50;66.60
19567;DHT22;9930;49.240;8.548;2023-08-17T20:53:51;27.50;66.80
19567;DHT22;9930;49.240;8.548;2023-08-17T20:56:27;27.50;66.40
19567;DHT22;9930;49.240;8.548;2023-08-17T20:59:32;27.40;66.90
19567;DHT22;9930;49.240;8.548;2023-08-17T21:02:26;27.30;66.80
19567;DHT22;9930;49.240;8.548;2023-08-17T21:05:10;27.30;67.50
19567;DHT22;9930;49.240;8.548;2023-08-17T21:08:21;27.30;67.90
19567;DHT22;9930;49.240;8.548;2023-08-17T21:10:53;27.30;68.00
19567;DHT22;9930;49.240;8.548;2023-08-17T21:13:32;27.30;67.40
19567;DHT22;9930;49.240;8.548;2023-08-17T21:16:15;27.20;67.60
19567;DHT22;9930;49.240;8.548;2023-08-17T21:18:54;27.20;67.50
19567;DHT22;9930;49.240;8.548;2023-08-17T21:21:32;27.10;68.30
19567;DHT22;9930;49.240;8.548;2023-08-17T21:24:52;27.10;68.10
19567;DHT22;9930;49.240;8.548;2023-08-17T21:27:30;27.10;68.00
19567;DHT22;9930;49.240;8.548;2023-08-17T21:30:04;27.00;68.50
19567;DHT22;9930;49.240;8.548;2023-08-17T21:32:52;27.00;68.50
19567;DHT22;9930;49.240;8.548;2023-08-17T21:38:19;26.90;68.90
19567;DHT22;9930;49.240;8.548;2023-08-17T21:40:58;26.90;68.90
19567;DHT22;9930;49.240;8.548;2023-08-17T21:43:55;26.90;69.50
19567;DHT22;9930;49.240;8.548;2023-08-17T21:46:42;26.90;70.00
19567;DHT22;9930;49.240;8.548;2023-08-17T21:49:10;26.80;70.00
19567;DHT22;9930;49.240;8.548;2023-08-17T21:51:49;26.80;69.50
19567;DHT22;9930;49.240;8.548;2023-08-17T21:54:17;26.80;70.10
19567;DHT22;9930;49.240;8.548;2023-08-17T21:57:06;26.80;70.00
19567;DHT22;9930;49.240;8.548;2023-08-17T21:59:44;26.80;70.00
19567;DHT22;9930;49.240;8.548;2023-08-17T22:02:35;26.70;70.70
19567;DHT22;9930;49.240;8.548;2023-08-17T22:05:00;26.70;70.30
19567;DHT22;9930;49.240;8.548;2023-08-17T22:07:37;26.70;70.40
19567;DHT22;9930;49.240;8.548;2023-08-17T22:10:31;26.60;70.90
19567;DHT22;9930;49.240;8.548;2023-08-17T22:13:14;26.60;70.60
